sensor_id;sensor_type;location;lat;lon;timestamp;P1;durP1;ratioP1;P2;durP2;ratioP2
8694;SDS011;65580;49.446;6.854;2023-03-04T00:02:49;65.13;;;19.10;;
8694;SDS011;65580;49.446;6.854;2023-03-04T00:06:54;79.78;;;20.25;;
8694;SDS011;65580;49.446;6.854;2023-03-04T00:15:00;74.43;;;19.60;;
8694;SDS011;65580;49.446;6.854;2023-03-04T00:19:04;68.90;;;17.92;;
8694;SDS011;65580;49.446;6.854;2023-03-04T00:23:08;64.65;;;18.67;;
8694;SDS011;65580;49.446;6.854;2023-03-04T00:27:12;69.47;;;17.67;;
8694;SDS011;65580;49.446;6.854;2023-03-04T00:31:15;58.92;;;16.15;;
8694;SDS011;65580;49.446;6.854;2023-03-04T00:35:18;49.92;;;15.45;;
8694;SDS011;65580;49.446;6.854;2023-03-04T00:39:23;60.45;;;16.90;;
8694;SDS011;65580;49.446;6.854;2023-03-04T00:43:27;72.03;;;18.02;;
8694;SDS011;65580;49.446;6.854;2023-03-04T00:47:30;64.40;;;16.25;;
8694;SDS011;65580;49.446;6.854;2023-03-04T00:51:33;62.53;;;17.58;;
8694;SDS011;65580;49.446;6.854;2023-03-04T00:55:38;71.13;;;19.40;;
8694;SDS011;65580;49.446;6.854;2023-03-04T00:59:41;66.85;;;17.48;;
8694;SDS011;65580;49.446;6.854;2023-03-04T01:03:44;55.92;;;16.42;;
8694;SDS011;65580;49.446;6.854;2023-03-04T01:07:48;59.40;;;17.75;;
8694;SDS011;65580;49.446;6.854;2023-03-04T01:11:52;77.15;;;19.00;;
8694;SDS011;65580;49.446;6.854;2023-03-04T01:15:55;78.82;;;18.50;;
8694;SDS011;65580;49.446;6.854;2023-03-04T01:19:59;62.72;;;16.90;;
8694;SDS011;65580;49.446;6.854;2023-03-04T01:24:02;58.65;;;15.15;;
8694;SDS011;65580;49.446;6.854;2023-03-04T01:28:07;67.75;;;16.55;;
8694;SDS011;65580;49.446;6.854;2023-03-04T01:32:11;52.17;;;15.25;;
8694;SDS011;65580;49.446;6.854;2023-03-04T01:36:15;67.63;;;16.50;;
8694;SDS011;65580;49.446;6.854;2023-03-04T01:40:18;57.38;;;15.70;;
8694;SDS011;65580;49.446;6.854;2023-03-04T01:44:23;54.17;;;15.10;;
8694;SDS011;65580;49.446;6.854;2023-03-04T01:48:26;70.20;;;17.88;;
8694;SDS011;65580;49.446;6.854;2023-03-04T01:52:34;75.38;;;18.65;;
8694;SDS011;65580;49.446;6.854;2023-03-04T01:56:38;96.75;;;21.13;;
8694;SDS011;65580;49.446;6.854;2023-03-04T02:00:43;70.63;;;18.15;;
8694;SDS011;65580;49.446;6.854;2023-03-04T02:08:49;52.17;;;15.23;;
8694;SDS011;65580;49.446;6.854;2023-03-04T02:12:53;55.28;;;14.60;;
8694;SDS011;65580;49.446;6.854;2023-03-04T02:16:57;58.65;;;15.50;;
8694;SDS011;65580;49.446;6.854;2023-03-04T02:21:02;59.20;;;15.73;;
8694;SDS011;65580;49.446;6.854;2023-03-04T02:25:08;54.38;;;14.95;;
8694;SDS011;65580;49.446;6.854;2023-03-04T02:29:15;52.58;;;14.43;;
8694;SDS011;65580;49.446;6.854;2023-03-04T02:33:19;61.08;;;15.30;;
8694;SDS011;65580;49.446;6.854;2023-03-04T02:37:22;57.75;;;14.60;;
8694;SDS011;65580;49.446;6.854;2023-03-04T02:41:25;62.75;;;15.07;;
8694;SDS011;65580;49.446;6.854;2023-03-04T02:45:37;86.43;;;17.73;;
8694;SDS011;65580;49.446;6.854;2023-03-04T02:49:42;61.28;;;14.30;;
8694;SDS011;65580;49.446;6.854;2023-03-04T02:53:46;55.85;;;14.15;;
8694;SDS011;65580;49.446;6.854;2023-03-04T02:57:49;50.40;;;12.25;;
8694;SDS011;65580;49.446;6.854;2023-03-04T03:01:53;60.85;;;14.70;;
8694;SDS011;65580;49.446;6.854;2023-03-04T03:05:57;67.93;;;16.08;;
8694;SDS011;65580;49.446;6.854;2023-03-04T03:10:00;48.88;;;12.98;;
8694;SDS011;65580;49.446;6.854;2023-03-04T03:14:03;53.88;;;13.68;;
8694;SDS011;65580;49.446;6.854;2023-03-04T03:18:08;62.17;;;14.57;;
8694;SDS011;65580;49.446;6.854;2023-03-04T03:26:16;53.72;;;13.25;;
8694;SDS011;65580;49.446;6.854;2023-03-04T03:30:19;78.43;;;16.50;;
8694;SDS011;65580;49.446;6.854;2023-03-04T03:34:24;55.40;;;12.98;;
8694;SDS011;65580;49.446;6.854;2023-03-04T03:38:27;49.42;;;12.48;;
8694;SDS011;65580;49.446;6.854;2023-03-04T03:42:30;54.58;;;13.30;;
8694;SDS011;65580;49.446;6.854;2023-03-04T03:46:34;49.67;;;12.25;;
8694;SDS011;65580;49.446;6.854;2023-03-04T03:50:38;52.05;;;13.02;;
8694;SDS011;65580;49.446;6.854;2023-03-04T03:54:41;57.72;;;14.07;;
8694;SDS011;65580;49.446;6.854;2023-03-04T03:58:44;51.88;;;12.93;;
8694;SDS011;65580;49.446;6.854;2023-03-04T04:02:46;62.53;;;15.15;;
8694;SDS011;65580;49.446;6.854;2023-03-04T04:06:51;54.60;;;13.35;;
8694;SDS011;65580;49.446;6.854;2023-03-04T04:10:54;52.67;;;14.02;;
8694;SDS011;65580;49.446;6.854;2023-03-04T04:14:56;56.78;;;14.55;;
8694;SDS011;65580;49.446;6.854;2023-03-04T04:18:59;48.63;;;13.20;;
8694;SDS011;65580;49.446;6.854;2023-03-04T04:23:03;42.53;;;12.88;;
8694;SDS011;65580;49.446;6.854;2023-03-04T04:27:06;56.65;;;14.90;;
8694;SDS011;65580;49.446;6.854;2023-03-04T04:31:09;51.03;;;12.80;;
8694;SDS011;65580;49.446;6.854;2023-03-04T04:35:12;60.15;;;14.85;;
8694;SDS011;65580;49.446;6.854;2023-03-04T04:39:16;55.67;;;15.85;;
8694;SDS011;65580;49.446;6.854;2023-03-04T04:43:19;60.33;;;16.92;;
8694;SDS011;65580;49.446;6.854;2023-03-04T04:47:22;58.35;;;15.98;;
8694;SDS011;65580;49.446;6.854;2023-03-04T04:51:25;51.30;;;13.80;;
8694;SDS011;65580;49.446;6.854;2023-03-04T04:55:29;67.63;;;16.92;;
8694;SDS011;65580;49.446;6.854;2023-03-04T04:59:31;52.85;;;13.70;;
8694;SDS011;65580;49.446;6.854;2023-03-04T05:03:35;44.13;;;12.35;;
8694;SDS011;65580;49.446;6.854;2023-03-04T05:07:38;46.10;;;13.50;;
8694;SDS011;65580;49.446;6.854;2023-03-04T05:11:42;47.35;;;12.90;;
8694;SDS011;65580;49.446;6.854;2023-03-04T05:15:46;46.50;;;12.52;;
8694;SDS011;65580;49.446;6.854;2023-03-04T05:19:49;49.55;;;13.07;;
8694;SDS011;65580;49.446;6.854;2023-03-04T05:23:51;44.60;;;12.50;;
8694;SDS011;65580;49.446;6.854;2023-03-04T05:27:55;54.70;;;13.93;;
8694;SDS011;65580;49.446;6.854;2023-03-04T05:31:58;44.47;;;12.90;;
8694;SDS011;65580;49.446;6.854;2023-03-04T05:36:01;49.05;;;13.23;;
8694;SDS011;65580;49.446;6.854;2023-03-04T05:40:05;55.08;;;13.43;;
8694;SDS011;65580;49.446;6.854;2023-03-04T05:44:10;51.55;;;13.68;;
8694;SDS011;65580;49.446;6.854;2023-03-04T05:48:13;52.95;;;13.70;;
8694;SDS011;65580;49.446;6.854;2023-03-04T05:52:16;54.47;;;15.48;;
8694;SDS011;65580;49.446;6.854;2023-03-04T05:56:19;44.58;;;13.40;;
8694;SDS011;65580;49.446;6.854;2023-03-04T06:00:23;53.55;;;13.98;;
8694;SDS011;65580;49.446;6.854;2023-03-04T06:04:26;55.83;;;14.57;;
8694;SDS011;65580;49.446;6.854;2023-03-04T06:08:29;49.00;;;13.93;;
8694;SDS011;65580;49.446;6.854;2023-03-04T06:12:33;49.80;;;13.63;;
8694;SDS011;65580;49.446;6.854;2023-03-04T06:16:36;47.70;;;14.00;;
8694;SDS011;65580;49.446;6.854;2023-03-04T06:20:39;55.67;;;13.25;;
8694;SDS011;65580;49.446;6.854;2023-03-04T06:24:42;46.40;;;13.48;;
8694;SDS011;65580;49.446;6.854;2023-03-04T06:28:45;48.55;;;13.77;;
8694;SDS011;65580;49.446;6.854;2023-03-04T06:32:49;50.92;;;13.93;;
8694;SDS011;65580;49.446;6.854;2023-03-04T06:36:52;45.33;;;13.73;;
8694;SDS011;65580;49.446;6.854;2023-03-04T06:40:54;55.53;;;14.82;;
8694;SDS011;65580;49.446;6.854;2023-03-04T06:44:58;58.17;;;17.30;;
8694;SDS011;65580;49.446;6.854;2023-03-04T06:49:02;67.80;;;20.65;;
8694;SDS011;65580;49.446;6.854;2023-03-04T06:53:05;65.68;;;18.17;;
8694;SDS011;65580;49.446;6.854;2023-03-04T06:57:07;83.47;;;23.45;;
8694;SDS011;65580;49.446;6.854;2023-03-04T07:01:11;75.63;;;20.65;;
8694;SDS011;65580;49.446;6.854;2023-03-04T07:05:16;62.25;;;17.58;;
8694;SDS011;65580;49.446;6.854;2023-03-04T07:09:19;62.42;;;16.15;;
8694;SDS011;65580;49.446;6.854;2023-03-04T07:13:26;65.07;;;16.80;;
8694;SDS011;65580;49.446;6.854;2023-03-04T07:17:29;65.05;;;18.58;;
8694;SDS011;65580;49.446;6.854;2023-03-04T07:21:33;81.07;;;22.13;;
8694;SDS011;65580;49.446;6.854;2023-03-04T07:25:36;86.57;;;23.45;;
8694;SDS011;65580;49.446;6.854;2023-03-04T07:29:39;82.05;;;22.23;;
8694;SDS011;65580;49.446;6.854;2023-03-04T07:33:41;68.15;;;21.08;;
8694;SDS011;65580;49.446;6.854;2023-03-04T07:37:45;89.45;;;24.40;;
8694;SDS011;65580;49.446;6.854;2023-03-04T07:41:48;97.97;;;25.58;;
8694;SDS011;65580;49.446;6.854;2023-03-04T07:45:51;105.30;;;26.40;;
8694;SDS011;65580;49.446;6.854;2023-03-04T07:49:55;105.70;;;28.30;;
8694;SDS011;65580;49.446;6.854;2023-03-04T07:53:59;130.63;;;33.35;;
8694;SDS011;65580;49.446;6.854;2023-03-04T07:58:03;94.47;;;26.67;;
8694;SDS011;65580;49.446;6.854;2023-03-04T08:02:05;103.10;;;28.75;;
8694;SDS011;65580;49.446;6.854;2023-03-04T08:06:11;83.28;;;26.55;;
8694;SDS011;65580;49.446;6.854;2023-03-04T08:10:17;92.50;;;26.38;;
8694;SDS011;65580;49.446;6.854;2023-03-04T08:14:19;108.70;;;30.02;;
8694;SDS011;65580;49.446;6.854;2023-03-04T08:18:22;89.82;;;27.48;;
8694;SDS011;65580;49.446;6.854;2023-03-04T08:22:25;97.72;;;28.90;;
8694;SDS011;65580;49.446;6.854;2023-03-04T08:26:30;87.20;;;25.65;;
8694;SDS011;65580;49.446;6.854;2023-03-04T08:30:35;75.70;;;24.60;;
8694;SDS011;65580;49.446;6.854;2023-03-04T08:34:38;69.10;;;23.55;;
8694;SDS011;65580;49.446;6.854;2023-03-04T08:38:42;84.55;;;25.15;;
8694;SDS011;65580;49.446;6.854;2023-03-04T08:42:46;92.22;;;26.52;;
8694;SDS011;65580;49.446;6.854;2023-03-04T08:46:49;84.07;;;27.02;;
8694;SDS011;65580;49.446;6.854;2023-03-04T08:50:52;79.95;;;25.17;;
8694;SDS011;65580;49.446;6.854;2023-03-04T08:54:55;71.90;;;23.92;;
8694;SDS011;65580;49.446;6.854;2023-03-04T08:59:00;73.05;;;23.88;;
8694;SDS011;65580;49.446;6.854;2023-03-04T09:07:05;69.78;;;22.13;;
8694;SDS011;65580;49.446;6.854;2023-03-04T09:11:09;64.85;;;22.45;;
8694;SDS011;65580;49.446;6.854;2023-03-04T09:15:14;52.00;;;18.77;;
8694;SDS011;65580;49.446;6.854;2023-03-04T09:19:17;63.20;;;20.63;;
8694;SDS011;65580;49.446;6.854;2023-03-04T09:23:20;95.18;;;34.15;;
8694;SDS011;65580;49.446;6.854;2023-03-04T09:27:23;115.53;;;42.25;;
8694;SDS011;65580;49.446;6.854;2023-03-04T09:31:28;84.82;;;30.15;;
8694;SDS011;65580;49.446;6.854;2023-03-04T09:35:31;90.32;;;32.05;;
8694;SDS011;65580;49.446;6.854;2023-03-04T09:39:34;74.45;;;27.05;;
8694;SDS011;65580;49.446;6.854;2023-03-04T09:43:37;63.10;;;17.77;;
8694;SDS011;65580;49.446;6.854;2023-03-04T09:47:42;51.95;;;15.57;;
8694;SDS011;65580;49.446;6.854;2023-03-04T09:51:47;40.55;;;11.73;;
8694;SDS011;65580;49.446;6.854;2023-03-04T09:55:58;40.08;;;11.63;;
8694;SDS011;65580;49.446;6.854;2023-03-04T10:00:04;33.50;;;9.65;;
8694;SDS011;65580;49.446;6.854;2023-03-04T10:04:16;29.08;;;9.93;;
8694;SDS011;65580;49.446;6.854;2023-03-04T10:08:23;37.42;;;9.20;;
8694;SDS011;65580;49.446;6.854;2023-03-04T10:12:33;33.47;;;9.80;;
8694;SDS011;65580;49.446;6.854;2023-03-04T10:16:41;37.30;;;8.75;;
8694;SDS011;65580;49.446;6.854;2023-03-04T10:20:52;26.50;;;8.32;;
8694;SDS011;65580;49.446;6.854;2023-03-04T10:24:56;28.67;;;8.77;;
8694;SDS011;65580;49.446;6.854;2023-03-04T10:29:00;30.85;;;8.57;;
8694;SDS011;65580;49.446;6.854;2023-03-04T10:33:13;32.97;;;8.18;;
8694;SDS011;65580;49.446;6.854;2023-03-04T10:37:19;28.30;;;8.23;;
8694;SDS011;65580;49.446;6.854;2023-03-04T10:41:23;26.25;;;8.35;;
8694;SDS011;65580;49.446;6.854;2023-03-04T10:45:29;32.42;;;7.82;;
8694;SDS011;65580;49.446;6.854;2023-03-04T10:49:36;30.15;;;8.20;;
8694;SDS011;65580;49.446;6.854;2023-03-04T10:53:56;25.92;;;7.43;;
8694;SDS011;65580;49.446;6.854;2023-03-04T10:58:01;27.83;;;7.47;;
8694;SDS011;65580;49.446;6.854;2023-03-04T11:02:23;20.15;;;7.22;;
8694;SDS011;65580;49.446;6.854;2023-03-04T11:06:28;25.08;;;7.40;;
8694;SDS011;65580;49.446;6.854;2023-03-04T11:10:39;28.65;;;8.18;;
8694;SDS011;65580;49.446;6.854;2023-03-04T11:14:44;28.25;;;7.40;;
8694;SDS011;65580;49.446;6.854;2023-03-04T11:18:50;25.55;;;7.18;;
8694;SDS011;65580;49.446;6.854;2023-03-04T11:22:56;25.92;;;7.63;;
8694;SDS011;65580;49.446;6.854;2023-03-04T11:27:04;25.23;;;7.28;;
8694;SDS011;65580;49.446;6.854;2023-03-04T11:31:09;26.73;;;7.72;;
8694;SDS011;65580;49.446;6.854;2023-03-04T11:35:17;28.33;;;6.65;;
8694;SDS011;65580;49.446;6.854;2023-03-04T11:39:26;22.27;;;6.55;;
8694;SDS011;65580;49.446;6.854;2023-03-04T11:43:35;27.73;;;7.35;;
8694;SDS011;65580;49.446;6.854;2023-03-04T11:47:41;21.83;;;6.80;;
8694;SDS011;65580;49.446;6.854;2023-03-04T11:51:50;23.83;;;6.30;;
8694;SDS011;65580;49.446;6.854;2023-03-04T11:55:58;23.10;;;6.70;;
8694;SDS011;65580;49.446;6.854;2023-03-04T12:00:17;21.92;;;6.32;;
8694;SDS011;65580;49.446;6.854;2023-03-04T12:04:28;16.13;;;5.13;;
8694;SDS011;65580;49.446;6.854;2023-03-04T12:08:48;18.52;;;6.05;;
8694;SDS011;65580;49.446;6.854;2023-03-04T12:13:03;21.27;;;5.93;;
8694;SDS011;65580;49.446;6.854;2023-03-04T12:21:58;22.17;;;5.78;;
8694;SDS011;65580;49.446;6.854;2023-03-04T12:26:12;15.90;;;5.05;;
8694;SDS011;65580;49.446;6.854;2023-03-04T12:30:29;16.95;;;3.78;;
8694;SDS011;65580;49.446;6.854;2023-03-04T12:34:40;14.63;;;4.30;;
8694;SDS011;65580;49.446;6.854;2023-03-04T12:38:58;9.73;;;4.03;;
8694;SDS011;65580;49.446;6.854;2023-03-04T12:43:07;15.73;;;4.38;;
8694;SDS011;65580;49.446;6.854;2023-03-04T12:47:21;12.20;;;3.10;;
8694;SDS011;65580;49.446;6.854;2023-03-04T12:51:31;14.93;;;3.38;;
8694;SDS011;65580;49.446;6.854;2023-03-04T12:55:37;18.38;;;4.45;;
8694;SDS011;65580;49.446;6.854;2023-03-04T12:59:42;13.48;;;3.53;;
8694;SDS011;65580;49.446;6.854;2023-03-04T13:03:51;14.52;;;3.70;;
8694;SDS011;65580;49.446;6.854;2023-03-04T13:08:00;10.80;;;3.75;;
8694;SDS011;65580;49.446;6.854;2023-03-04T13:12:13;11.13;;;3.20;;
8694;SDS011;65580;49.446;6.854;2023-03-04T13:16:29;12.13;;;3.25;;
8694;SDS011;65580;49.446;6.854;2023-03-04T13:20:35;10.60;;;3.47;;
8694;SDS011;65580;49.446;6.854;2023-03-04T13:24:44;13.70;;;3.67;;
8694;SDS011;65580;49.446;6.854;2023-03-04T13:28:51;11.57;;;4.05;;
8694;SDS011;65580;49.446;6.854;2023-03-04T13:32:54;13.15;;;3.65;;
8694;SDS011;65580;49.446;6.854;2023-03-04T13:36:58;10.82;;;3.63;;
8694;SDS011;65580;49.446;6.854;2023-03-04T13:41:10;10.13;;;3.10;;
8694;SDS011;65580;49.446;6.854;2023-03-04T13:49:36;10.07;;;2.95;;
8694;SDS011;65580;49.446;6.854;2023-03-04T13:53:42;16.08;;;3.28;;
8694;SDS011;65580;49.446;6.854;2023-03-04T13:57:49;8.85;;;2.97;;
8694;SDS011;65580;49.446;6.854;2023-03-04T14:02:02;6.95;;;2.83;;
8694;SDS011;65580;49.446;6.854;2023-03-04T14:06:15;11.05;;;3.30;;
8694;SDS011;65580;49.446;6.854;2023-03-04T14:10:20;9.80;;;3.30;;
8694;SDS011;65580;49.446;6.854;2023-03-04T14:14:27;9.65;;;2.80;;
8694;SDS011;65580;49.446;6.854;2023-03-04T14:18:32;11.57;;;3.10;;
8694;SDS011;65580;49.446;6.854;2023-03-04T14:22:37;9.18;;;2.80;;
8694;SDS011;65580;49.446;6.854;2023-03-04T14:26:40;9.52;;;2.97;;
8694;SDS011;65580;49.446;6.854;2023-03-04T14:30:51;12.13;;;3.50;;
8694;SDS011;65580;49.446;6.854;2023-03-04T14:34:56;11.52;;;3.00;;
8694;SDS011;65580;49.446;6.854;2023-03-04T14:39:00;8.02;;;2.72;;
8694;SDS011;65580;49.446;6.854;2023-03-04T14:43:07;7.20;;;2.88;;
8694;SDS011;65580;49.446;6.854;2023-03-04T14:47:16;10.60;;;2.53;;
8694;SDS011;65580;49.446;6.854;2023-03-04T14:51:38;11.75;;;3.20;;
8694;SDS011;65580;49.446;6.854;2023-03-04T14:55:58;7.30;;;2.83;;
8694;SDS011;65580;49.446;6.854;2023-03-04T15:00:16;9.38;;;2.95;;
8694;SDS011;65580;49.446;6.854;2023-03-04T15:04:28;7.57;;;2.60;;
8694;SDS011;65580;49.446;6.854;2023-03-04T15:12:36;7.22;;;2.90;;
8694;SDS011;65580;49.446;6.854;2023-03-04T15:16:52;14.50;;;3.67;;
8694;SDS011;65580;49.446;6.854;2023-03-04T15:20:59;10.90;;;3.40;;
8694;SDS011;65580;49.446;6.854;2023-03-04T15:25:03;7.97;;;3.13;;
8694;SDS011;65580;49.446;6.854;2023-03-04T15:29:10;12.30;;;2.83;;
8694;SDS011;65580;49.446;6.854;2023-03-04T15:33:16;10.88;;;2.83;;
8694;SDS011;65580;49.446;6.854;2023-03-04T15:37:23;10.75;;;3.35;;
8694;SDS011;65580;49.446;6.854;2023-03-04T15:41:28;11.52;;;3.35;;
8694;SDS011;65580;49.446;6.854;2023-03-04T15:45:31;9.43;;;3.00;;
8694;SDS011;65580;49.446;6.854;2023-03-04T15:49:37;9.05;;;3.20;;
8694;SDS011;65580;49.446;6.854;2023-03-04T15:53:42;10.32;;;2.75;;
8694;SDS011;65580;49.446;6.854;2023-03-04T15:57:47;12.55;;;3.63;;
8694;SDS011;65580;49.446;6.854;2023-03-04T16:01:51;10.13;;;2.60;;
8694;SDS011;65580;49.446;6.854;2023-03-04T16:05:54;7.45;;;2.70;;
8694;SDS011;65580;49.446;6.854;2023-03-04T16:10:00;7.13;;;2.85;;
8694;SDS011;65580;49.446;6.854;2023-03-04T16:14:03;6.38;;;2.58;;
8694;SDS011;65580;49.446;6.854;2023-03-04T16:18:07;7.60;;;2.65;;
8694;SDS011;65580;49.446;6.854;2023-03-04T16:22:11;8.02;;;2.33;;
8694;SDS011;65580;49.446;6.854;2023-03-04T16:26:19;10.15;;;2.70;;
8694;SDS011;65580;49.446;6.854;2023-03-04T16:30:25;7.00;;;2.88;;
8694;SDS011;65580;49.446;6.854;2023-03-04T16:34:31;11.55;;;2.88;;
8694;SDS011;65580;49.446;6.854;2023-03-04T16:38:35;8.32;;;2.90;;
8694;SDS011;65580;49.446;6.854;2023-03-04T16:42:42;9.05;;;2.72;;
8694;SDS011;65580;49.446;6.854;2023-03-04T16:46:50;5.82;;;2.40;;
8694;SDS011;65580;49.446;6.854;2023-03-04T16:50:57;5.50;;;2.63;;
8694;SDS011;65580;49.446;6.854;2023-03-04T16:55:01;11.60;;;2.67;;
8694;SDS011;65580;49.446;6.854;2023-03-04T16:59:05;7.32;;;2.92;;
8694;SDS011;65580;49.446;6.854;2023-03-04T17:03:09;8.57;;;3.00;;
8694;SDS011;65580;49.446;6.854;2023-03-04T17:07:13;8.00;;;2.67;;
8694;SDS011;65580;49.446;6.854;2023-03-04T17:11:18;12.68;;;3.22;;
8694;SDS011;65580;49.446;6.854;2023-03-04T17:15:23;7.78;;;2.83;;
8694;SDS011;65580;49.446;6.854;2023-03-04T17:19:27;7.72;;;2.95;;
8694;SDS011;65580;49.446;6.854;2023-03-04T17:23:31;8.80;;;3.28;;
8694;SDS011;65580;49.446;6.854;2023-03-04T17:27:35;9.07;;;2.97;;
8694;SDS011;65580;49.446;6.854;2023-03-04T17:31:44;9.75;;;3.40;;
8694;SDS011;65580;49.446;6.854;2023-03-04T17:35:47;8.43;;;2.95;;
8694;SDS011;65580;49.446;6.854;2023-03-04T17:39:52;10.27;;;3.28;;
8694;SDS011;65580;49.446;6.854;2023-03-04T17:43:58;7.72;;;3.15;;
8694;SDS011;65580;49.446;6.854;2023-03-04T17:48:04;9.90;;;3.13;;
8694;SDS011;65580;49.446;6.854;2023-03-04T17:52:09;9.13;;;2.92;;
8694;SDS011;65580;49.446;6.854;2023-03-04T17:56:14;9.45;;;2.90;;
8694;SDS011;65580;49.446;6.854;2023-03-04T18:00:17;6.55;;;2.70;;
8694;SDS011;65580;49.446;6.854;2023-03-04T18:04:22;12.35;;;3.20;;
8694;SDS011;65580;49.446;6.854;2023-03-04T18:08:26;6.47;;;2.80;;
8694;SDS011;65580;49.446;6.854;2023-03-04T18:12:34;11.75;;;3.40;;
8694;SDS011;65580;49.446;6.854;2023-03-04T18:16:37;20.88;;;6.70;;
8694;SDS011;65580;49.446;6.854;2023-03-04T18:20:42;18.67;;;6.90;;
8694;SDS011;65580;49.446;6.854;2023-03-04T18:24:45;18.23;;;5.97;;
8694;SDS011;65580;49.446;6.854;2023-03-04T18:28:49;11.68;;;4.82;;
8694;SDS011;65580;49.446;6.854;2023-03-04T18:32:53;11.35;;;4.55;;
8694;SDS011;65580;49.446;6.854;2023-03-04T18:36:58;11.68;;;4.15;;
8694;SDS011;65580;49.446;6.854;2023-03-04T18:41:02;10.32;;;4.05;;
8694;SDS011;65580;49.446;6.854;2023-03-04T18:45:07;9.38;;;3.92;;
8694;SDS011;65580;49.446;6.854;2023-03-04T18:49:11;13.52;;;4.50;;
8694;SDS011;65580;49.446;6.854;2023-03-04T18:53:17;9.35;;;3.33;;
8694;SDS011;65580;49.446;6.854;2023-03-04T18:57:24;10.00;;;3.90;;
8694;SDS011;65580;49.446;6.854;2023-03-04T19:01:27;8.48;;;3.47;;
8694;SDS011;65580;49.446;6.854;2023-03-04T19:05:31;10.52;;;3.47;;
8694;SDS011;65580;49.446;6.854;2023-03-04T19:09:36;11.38;;;3.60;;
8694;SDS011;65580;49.446;6.854;2023-03-04T19:13:40;10.40;;;3.70;;
8694;SDS011;65580;49.446;6.854;2023-03-04T19:17:44;10.00;;;3.63;;
8694;SDS011;65580;49.446;6.854;2023-03-04T19:21:47;9.90;;;3.92;;
8694;SDS011;65580;49.446;6.854;2023-03-04T19:25:52;12.73;;;3.40;;
8694;SDS011;65580;49.446;6.854;2023-03-04T19:29:56;9.95;;;3.95;;
8694;SDS011;65580;49.446;6.854;2023-03-04T19:33:59;11.82;;;4.05;;
8694;SDS011;65580;49.446;6.854;2023-03-04T19:38:02;12.93;;;4.70;;
8694;SDS011;65580;49.446;6.854;2023-03-04T19:42:08;10.43;;;4.03;;
8694;SDS011;65580;49.446;6.854;2023-03-04T19:46:12;15.70;;;6.28;;
8694;SDS011;65580;49.446;6.854;2023-03-04T19:50:16;18.70;;;6.80;;
8694;SDS011;65580;49.446;6.854;2023-03-04T19:54:20;20.08;;;6.88;;
8694;SDS011;65580;49.446;6.854;2023-03-04T19:58:24;17.75;;;5.97;;
8694;SDS011;65580;49.446;6.854;2023-03-04T20:02:28;13.18;;;4.85;;
8694;SDS011;65580;49.446;6.854;2023-03-04T20:06:32;17.08;;;5.53;;
8694;SDS011;65580;49.446;6.854;2023-03-04T20:10:37;15.82;;;6.20;;
8694;SDS011;65580;49.446;6.854;2023-03-04T20:14:43;18.65;;;6.47;;
8694;SDS011;65580;49.446;6.854;2023-03-04T20:18:46;16.70;;;5.47;;
8694;SDS011;65580;49.446;6.854;2023-03-04T20:22:50;16.00;;;6.28;;
8694;SDS011;65580;49.446;6.854;2023-03-04T20:26:53;14.15;;;5.35;;
8694;SDS011;65580;49.446;6.854;2023-03-04T20:31:09;19.23;;;6.53;;
8694;SDS011;65580;49.446;6.854;2023-03-04T20:35:14;16.08;;;5.38;;
8694;SDS011;65580;49.446;6.854;2023-03-04T20:39:17;18.95;;;5.88;;
8694;SDS011;65580;49.446;6.854;2023-03-04T20:43:29;14.80;;;5.43;;
8694;SDS011;65580;49.446;6.854;2023-03-04T20:47:34;12.57;;;5.00;;
8694;SDS011;65580;49.446;6.854;2023-03-04T20:51:40;12.35;;;5.03;;
8694;SDS011;65580;49.446;6.854;2023-03-04T20:55:43;14.32;;;4.82;;
8694;SDS011;65580;49.446;6.854;2023-03-04T20:59:46;18.58;;;6.00;;
8694;SDS011;65580;49.446;6.854;2023-03-04T21:03:51;16.00;;;6.22;;
8694;SDS011;65580;49.446;6.854;2023-03-04T21:07:55;13.15;;;5.32;;
8694;SDS011;65580;49.446;6.854;2023-03-04T21:11:58;10.88;;;5.80;;
8694;SDS011;65580;49.446;6.854;2023-03-04T21:16:01;15.88;;;6.32;;
8694;SDS011;65580;49.446;6.854;2023-03-04T21:20:08;13.70;;;6.13;;
8694;SDS011;65580;49.446;6.854;2023-03-04T21:24:13;14.23;;;5.70;;
8694;SDS011;65580;49.446;6.854;2023-03-04T21:28:18;16.20;;;6.22;;
8694;SDS011;65580;49.446;6.854;2023-03-04T21:32:22;20.00;;;6.03;;
8694;SDS011;65580;49.446;6.854;2023-03-04T21:36:28;15.80;;;5.75;;
8694;SDS011;65580;49.446;6.854;2023-03-04T21:40:31;19.27;;;6.25;;
8694;SDS011;65580;49.446;6.854;2023-03-04T21:44:34;13.35;;;5.85;;
8694;SDS011;65580;49.446;6.854;2023-03-04T21:48:50;15.88;;;5.85;;
8694;SDS011;65580;49.446;6.854;2023-03-04T21:52:54;13.90;;;5.53;;
8694;SDS011;65580;49.446;6.854;2023-03-04T21:56:57;15.73;;;5.95;;
8694;SDS011;65580;49.446;6.854;2023-03-04T22:01:07;12.55;;;5.32;;
8694;SDS011;65580;49.446;6.854;2023-03-04T22:05:11;17.50;;;6.40;;
8694;SDS011;65580;49.446;6.854;2023-03-04T22:09:15;16.98;;;6.53;;
8694;SDS011;65580;49.446;6.854;2023-03-04T22:13:18;13.88;;;5.97;;
8694;SDS011;65580;49.446;6.854;2023-03-04T22:17:22;16.48;;;5.80;;
8694;SDS011;65580;49.446;6.854;2023-03-04T22:21:25;14.38;;;5.40;;
8694;SDS011;65580;49.446;6.854;2023-03-04T22:25:29;14.48;;;5.43;;
8694;SDS011;65580;49.446;6.854;2023-03-04T22:29:33;14.23;;;5.05;;
8694;SDS011;65580;49.446;6.854;2023-03-04T22:33:36;16.05;;;6.15;;
8694;SDS011;65580;49.446;6.854;2023-03-04T22:37:41;15.05;;;5.20;;
8694;SDS011;65580;49.446;6.854;2023-03-04T22:41:46;15.40;;;5.57;;
8694;SDS011;65580;49.446;6.854;2023-03-04T22:45:49;15.15;;;6.13;;
8694;SDS011;65580;49.446;6.854;2023-03-04T22:49:52;13.55;;;5.32;;
8694;SDS011;65580;49.446;6.854;2023-03-04T22:53:56;15.55;;;5.05;;
8694;SDS011;65580;49.446;6.854;2023-03-04T22:58:01;14.98;;;5.20;;
8694;SDS011;65580;49.446;6.854;2023-03-04T23:02:04;12.07;;;4.88;;
8694;SDS011;65580;49.446;6.854;2023-03-04T23:06:09;18.35;;;6.03;;
8694;SDS011;65580;49.446;6.854;2023-03-04T23:10:15;25.35;;;5.65;;
8694;SDS011;65580;49.446;6.854;2023-03-04T23:14:22;17.75;;;6.75;;
8694;SDS011;65580;49.446;6.854;2023-03-04T23:22:27;12.35;;;5.30;;
8694;SDS011;65580;49.446;6.854;2023-03-04T23:26:31;15.10;;;6.28;;
8694;SDS011;65580;49.446;6.854;2023-03-04T23:30:38;15.32;;;5.60;;
8694;SDS011;65580;49.446;6.854;2023-03-04T23:34:41;13.93;;;5.38;;
8694;SDS011;65580;49.446;6.854;2023-03-04T23:38:45;17.10;;;6.78;;
8694;SDS011;65580;49.446;6.854;2023-03-04T23:42:49;12.52;;;5.38;;
8694;SDS011;65580;49.446;6.854;2023-03-04T23:46:54;15.52;;;5.50;;
8694;SDS011;65580;49.446;6.854;2023-03-04T23:50:57;12.32;;;5.60;;
8694;SDS011;65580;49.446;6.854;2023-03-04T23:55:02;12.30;;;4.85;;
8694;SDS011;65580;49.446;6.854;2023-03-04T23:59:06;14.02;;;5.32;;
